首页
METAR-TAF:

METAR-TAF

机场 :

安曼, 约旦

安曼民航機場

纬度: 31-59N, 经度: 035-59E, 海拔: 767米

当前天气观测

该预报发布于10分钟前的00:00 UTC
风速7节,风向西转西南
温度 9°C
湿度 87%
气压 1016 hPa
能見度: 6000
散云层高于2500英尺
散云层高于3000英尺

METAR: OJAM 180000Z 24007KT 6000 SCT025 SCT030 09/07 Q1016 NOSIG

时间: 02:10 (00:10 UTC)

预报

该预报发布于1小时和18分钟前的22:52 UTC
预报有效从18日的 00点(UTC)到 19日的 06点(UTC)
风速5节,风向西转西南
能見度: 6000
散云层高于2500英尺
散云层高于3000英尺
成为
从 18日的 07点(UTC)到 18日的 09点(UTC)
风速14节,风向西南
能見度: 4000
散云层高于3000英尺
多云层高于3500英尺
浮尘
短暂存在
从 18日的 12点(UTC)到 18日的 16点(UTC)
风速16节,风向西转西南,有时为26节阵风
能見度: 3000
高吹尘
成为
从 18日的 16点(UTC)到 18日的 18点(UTC)
风速20节,风向西,有时为30节阵风
能見度: 3000
散云层高于2500英尺
多云层高于3000英尺
短暂存在
从 18日的 19点(UTC)到 18日的 24点(UTC)
散云层高于2000英尺, 积雨云.
多云层高于2500英尺
雷暴, 雨

TAF: OJAM 172252Z 1800/1906 24005KT 6000 SCT025 SCT030 BECMG 1807/1809 23014KT 4000 DU SCT030 BKN035 TEMPO 1812/1816 25016G26KT 3000 BLDU BECMG 1816/1818 27020G30KT 3000 RA SCT025 BKN030 TEMPO 1819/1824 TSRA SCT020CB BKN025

超过4000个机场的气象观测和天气预报(METAR&TAF报告)。

可查询的气象台以黄色和红色小点在地图上表示。

将鼠标移到小点上方,可查看气象台名称。

然后点击查看天气观测和预报。

如需切换地图:点击带黑十字的绿色按钮放大地图;点击带横线的绿色按钮缩小地图;或者点击绿色箭头查看邻近地区的地图。


METAR-TAF: